createdAt,value
2022-10-08T00:01:58.990Z,18.75
2022-10-08T00:07:01.487Z,17.23
2022-10-08T00:12:03.420Z,17.75
2022-10-08T00:17:06.465Z,18.20
2022-10-08T00:22:08.619Z,16.08
2022-10-08T00:27:12.971Z,17.23
2022-10-08T00:32:17.491Z,16.02
2022-10-08T00:37:19.524Z,17.33
2022-10-08T00:42:21.907Z,19.40
2022-10-08T00:47:33.178Z,16.23
2022-10-08T00:52:37.753Z,18.77
2022-10-08T00:57:41.192Z,17.75
2022-10-08T01:02:44.407Z,18.90
2022-10-08T01:08:04.621Z,19.73
2022-10-08T01:13:20.249Z,18.42
2022-10-08T01:18:32.976Z,18.55
2022-10-08T01:23:37.909Z,18.80
2022-10-08T01:28:56.235Z,18.25
2022-10-08T01:34:23.562Z,18.95
2022-10-08T01:39:31.382Z,20.05
2022-10-08T01:44:43.032Z,20.15
2022-10-08T01:49:52.800Z,19.25
2022-10-08T01:55:02.031Z,20.00
2022-10-08T02:00:09.244Z,19.30
2022-10-08T02:05:14.090Z,19.92
2022-10-08T02:10:19.971Z,18.70
2022-10-08T02:15:51.722Z,18.20
2022-10-08T02:21:02.064Z,18.85
2022-10-08T02:26:08.357Z,19.15
2022-10-08T02:31:19.397Z,17.77
2022-10-08T02:36:31.306Z,16.70
2022-10-08T02:41:38.371Z,15.85
2022-10-08T02:46:44.329Z,15.45
2022-10-08T02:51:49.992Z,15.27
2022-10-08T02:56:58.905Z,16.48
2022-10-08T03:02:03.216Z,15.60
2022-10-08T03:07:06.046Z,15.55
2022-10-08T03:12:08.159Z,16.60
2022-10-08T03:17:15.064Z,17.85
2022-10-08T03:22:18.038Z,16.75
2022-10-08T03:27:20.041Z,16.75
2022-10-08T03:32:22.214Z,16.23
2022-10-08T03:37:24.150Z,18.58
2022-10-08T03:42:26.443Z,17.17
2022-10-08T03:47:29.328Z,16.95
2022-10-08T03:52:31.817Z,16.73
2022-10-08T03:57:33.682Z,17.45
2022-10-08T04:02:35.661Z,16.45
2022-10-08T04:07:37.869Z,18.05
2022-10-08T04:12:39.766Z,18.23
2022-10-08T04:17:44.256Z,18.95
2022-10-08T04:22:49.333Z,18.65
2022-10-08T04:27:52.043Z,18.55
2022-10-08T04:32:54.143Z,19.40
2022-10-08T04:37:55.833Z,20.15
2022-10-08T04:42:58.038Z,18.92
2022-10-08T04:48:01.617Z,20.40
2022-10-08T04:53:03.776Z,18.58
2022-10-08T04:58:05.884Z,19.38
2022-10-08T05:03:08.220Z,19.02
2022-10-08T05:08:10.180Z,19.13
2022-10-08T05:13:13.101Z,21.05
2022-10-08T05:18:17.496Z,20.50
2022-10-08T05:23:19.403Z,20.83
2022-10-08T05:28:21.455Z,20.92
2022-10-08T05:33:23.354Z,21.08
2022-10-08T05:38:25.298Z,20.10
2022-10-08T05:43:27.433Z,20.73
2022-10-08T05:48:29.449Z,21.73
2022-10-08T05:53:31.460Z,20.95
2022-10-08T05:58:39.675Z,21.55
2022-10-08T06:03:42.012Z,20.65
2022-10-08T06:08:47.434Z,21.33
2022-10-08T06:13:53.322Z,21.00
2022-10-08T06:18:55.233Z,21.42
2022-10-08T06:23:59.242Z,22.35
2022-10-08T06:29:01.595Z,21.15
2022-10-08T06:34:04.635Z,21.30
2022-10-08T06:39:11.517Z,21.58
2022-10-08T06:44:15.412Z,21.92
2022-10-08T06:49:18.558Z,22.60
2022-10-08T06:54:22.348Z,22.00
2022-10-08T06:59:24.688Z,23.73
2022-10-08T07:04:26.634Z,22.15
2022-10-08T07:09:28.335Z,21.80
2022-10-08T07:14:29.945Z,24.20
2022-10-08T07:19:31.704Z,22.35
2022-10-08T07:24:33.953Z,22.13
2022-10-08T07:29:36.865Z,22.05
2022-10-08T07:34:38.809Z,22.92
2022-10-08T07:39:41.585Z,21.73
2022-10-08T07:44:43.359Z,22.17
2022-10-08T07:49:45.137Z,21.40
2022-10-08T07:54:46.731Z,20.73
2022-10-08T07:59:48.413Z,22.52
2022-10-08T08:04:50.127Z,22.95
2022-10-08T08:09:51.917Z,22.58
2022-10-08T08:14:53.949Z,20.80
2022-10-08T08:19:56.774Z,21.50
2022-10-08T08:24:58.744Z,20.27
2022-10-08T08:30:00.733Z,20.95
2022-10-08T08:35:02.921Z,20.17
2022-10-08T08:40:04.863Z,20.30
2022-10-08T08:45:41.841Z,21.45
2022-10-08T08:50:48.845Z,19.93
2022-10-08T08:55:55.539Z,20.17
2022-10-08T09:01:10.099Z,21.65
2022-10-08T09:06:15.163Z,22.75
2022-10-08T09:11:21.481Z,20.27
2022-10-08T09:16:23.256Z,19.60
2022-10-08T09:21:25.627Z,19.20
2022-10-08T09:26:34.272Z,16.60
2022-10-08T09:31:38.962Z,17.52
2022-10-08T09:36:44.715Z,14.18
2022-10-08T09:41:55.753Z,14.18
2022-10-08T09:47:07.319Z,12.82
2022-10-08T09:52:28.762Z,11.52
2022-10-08T09:57:33.584Z,11.25
2022-10-08T10:02:37.907Z,11.18
2022-10-08T10:07:45.831Z,11.32
2022-10-08T10:12:56.049Z,9.95
2022-10-08T10:18:12.950Z,8.82
2022-10-08T10:23:50.472Z,10.57
2022-10-08T10:29:00.271Z,8.97
2022-10-08T10:34:11.254Z,7.68
2022-10-08T10:39:22.171Z,6.28
2022-10-08T10:44:34.406Z,6.07
2022-10-08T10:49:41.386Z,5.20
2022-10-08T10:55:16.046Z,4.03
2022-10-08T11:00:27.267Z,4.18
2022-10-08T11:05:36.145Z,3.75
2022-10-08T11:11:04.267Z,3.25
2022-10-08T11:16:21.066Z,3.70
2022-10-08T11:21:55.173Z,3.70
2022-10-08T11:27:07.673Z,3.78
2022-10-08T11:32:15.321Z,3.40
2022-10-08T11:37:39.793Z,3.67
2022-10-08T11:43:08.601Z,4.20
2022-10-08T11:48:32.025Z,3.72
2022-10-08T11:53:34.087Z,3.55
2022-10-08T11:58:37.231Z,4.03
2022-10-08T12:03:42.032Z,3.50
2022-10-08T12:08:53.589Z,3.80
2022-10-08T12:14:26.847Z,3.28
2022-10-08T12:19:35.854Z,4.00
2022-10-08T12:24:40.546Z,2.97
2022-10-08T12:30:05.144Z,2.83
2022-10-08T12:35:18.581Z,2.35
2022-10-08T12:40:49.501Z,3.17
2022-10-08T12:46:19.278Z,2.20
2022-10-08T12:52:01.070Z,2.30
2022-10-08T12:57:09.946Z,2.38
2022-10-08T13:02:38.358Z,2.13
2022-10-08T13:07:39.994Z,2.58
2022-10-08T13:12:43.912Z,2.65
2022-10-08T13:17:45.905Z,2.85
2022-10-08T13:22:48.204Z,2.25
2022-10-08T13:28:08.417Z,2.67
2022-10-08T13:33:23.037Z,5.35
2022-10-08T13:38:32.227Z,2.83
2022-10-08T13:43:34.602Z,2.53
2022-10-08T13:48:43.070Z,2.90
2022-10-08T13:53:45.854Z,2.55
2022-10-08T13:58:47.632Z,2.25
2022-10-08T14:03:49.425Z,2.05
2022-10-08T14:08:51.160Z,2.05
2022-10-08T14:13:52.820Z,1.77
2022-10-08T14:18:57.892Z,1.85
2022-10-08T14:24:01.636Z,1.77
2022-10-08T14:29:03.528Z,1.85
2022-10-08T14:34:05.613Z,1.77
2022-10-08T14:39:08.189Z,1.67
2022-10-08T14:44:10.086Z,1.80
2022-10-08T14:49:11.966Z,1.67
2022-10-08T14:54:14.177Z,1.67
2022-10-08T14:59:19.410Z,1.70
2022-10-08T15:04:21.254Z,1.67
2022-10-08T15:09:23.188Z,1.85
2022-10-08T15:14:25.063Z,1.42
2022-10-08T15:19:26.975Z,1.88
2022-10-08T15:24:28.846Z,1.20
2022-10-08T15:29:30.499Z,1.27
2022-10-08T15:34:32.198Z,1.17
2022-10-08T15:39:35.974Z,1.00
2022-10-08T15:44:38.425Z,1.05
2022-10-08T15:49:42.084Z,1.00
2022-10-08T15:54:44.226Z,1.67
2022-10-08T15:59:46.358Z,1.13
2022-10-08T16:04:48.637Z,1.00
2022-10-08T16:09:50.264Z,0.95
2022-10-08T16:14:51.898Z,1.10
2022-10-08T16:19:53.587Z,1.38
2022-10-08T16:24:55.204Z,1.23
2022-10-08T16:29:57.043Z,0.98
2022-10-08T16:34:58.618Z,1.08
2022-10-08T16:40:04.011Z,1.30
2022-10-08T16:45:08.137Z,1.27
2022-10-08T16:50:10.292Z,1.30
2022-10-08T16:55:12.508Z,1.17
2022-10-08T17:00:14.652Z,1.38
2022-10-08T17:05:17.545Z,1.55
2022-10-08T17:10:19.534Z,1.30
2022-10-08T17:15:21.167Z,1.58
2022-10-08T17:20:23.177Z,1.65
2022-10-08T17:25:24.859Z,1.73
2022-10-08T17:30:26.664Z,1.05
2022-10-08T17:35:28.460Z,1.20
2022-10-08T17:40:31.098Z,1.17
2022-10-08T17:45:33.294Z,1.30
2022-10-08T17:50:36.375Z,1.27
2022-10-08T17:55:38.143Z,1.70
2022-10-08T18:00:39.936Z,1.73
2022-10-08T18:05:41.594Z,1.38
2022-10-08T18:10:43.196Z,1.30
2022-10-08T18:15:45.287Z,1.10
2022-10-08T18:20:57.769Z,0.90
2022-10-08T18:26:17.338Z,0.98
2022-10-08T18:31:21.060Z,1.00
2022-10-08T18:36:25.293Z,1.20
2022-10-08T18:41:29.829Z,1.40
2022-10-08T18:46:33.734Z,1.23
2022-10-08T18:51:35.692Z,1.10
2022-10-08T18:56:39.716Z,1.17
2022-10-08T19:01:46.463Z,1.50
2022-10-08T19:06:52.180Z,0.95
2022-10-08T19:11:54.524Z,0.95
2022-10-08T19:16:56.136Z,1.00
2022-10-08T19:22:00.599Z,1.27
2022-10-08T19:27:02.225Z,1.02
2022-10-08T19:32:04.197Z,1.10
2022-10-08T19:37:08.464Z,1.35
2022-10-08T19:42:10.461Z,1.20
2022-10-08T19:47:12.284Z,1.20
2022-10-08T19:52:14.946Z,0.75
2022-10-08T19:57:16.599Z,1.00
2022-10-08T20:02:18.288Z,1.35
2022-10-08T20:07:26.114Z,1.45
2022-10-08T20:12:28.192Z,1.45
2022-10-08T20:17:30.904Z,1.30
2022-10-08T20:22:32.658Z,1.45
2022-10-08T20:27:34.275Z,1.50
2022-10-08T20:32:37.706Z,1.65
2022-10-08T20:37:39.401Z,1.38
2022-10-08T20:42:41.515Z,1.27
2022-10-08T20:47:43.019Z,1.60
2022-10-08T20:52:44.931Z,1.40
2022-10-08T20:57:46.929Z,1.48
2022-10-08T21:02:48.800Z,1.52
2022-10-08T21:07:50.765Z,1.90
2022-10-08T21:12:53.803Z,1.67
2022-10-08T21:17:58.313Z,1.70
2022-10-08T21:22:59.955Z,1.48
2022-10-08T21:28:01.687Z,2.08
2022-10-08T21:33:03.767Z,1.70
2022-10-08T21:38:05.540Z,1.45
2022-10-08T21:43:07.150Z,1.95
2022-10-08T21:48:08.952Z,1.73
2022-10-08T21:53:10.718Z,2.03
2022-10-08T21:58:12.454Z,2.08
2022-10-08T22:03:15.763Z,1.90
2022-10-08T22:08:17.723Z,1.98
2022-10-08T22:13:21.003Z,2.00
2022-10-08T22:18:26.057Z,2.00
2022-10-08T22:23:27.718Z,2.20
2022-10-08T22:28:30.684Z,7.93
2022-10-08T22:33:32.889Z,7.82
2022-10-08T22:38:37.033Z,3.97
2022-10-08T22:43:40.735Z,7.70
2022-10-08T22:48:43.826Z,15.85
2022-10-08T22:53:46.366Z,21.83
2022-10-08T22:58:49.197Z,14.23
2022-10-08T23:03:51.627Z,10.93
2022-10-08T23:09:06.240Z,7.68
2022-10-08T23:14:09.711Z,7.18
2022-10-08T23:19:12.049Z,8.00
2022-10-08T23:24:13.883Z,6.47
2022-10-08T23:29:16.803Z,6.03
2022-10-08T23:34:19.986Z,3.60
2022-10-08T23:39:22.137Z,3.08
2022-10-08T23:44:23.840Z,3.15
2022-10-08T23:49:25.474Z,2.75
2022-10-08T23:54:27.517Z,2.38
2022-10-08T23:59:29.258Z,2.30
